Time,TemperatureF,DewpointF,PressureIn,WindDirection,WindDirectionDegrees,WindSpeedMPH,WindSpeedGustMPH,Humidity,HourlyPrecipIn,Conditions,Clouds,dailyrainin,SoftwareType,DateUTC
2013-03-02 00:00:00,28.0,24.0,-100.00,SW,216,2.0,5.0,85,-99.99,,,-99.99,,2013-03-02 07:00:00,
2013-03-02 00:32:00,28.0,24.0,-100.00,SW,216,2.0,5.0,85,-99.99,,,-99.99,,2013-03-02 07:32:00,
2013-03-02 00:42:00,28.0,24.0,-100.00,SW,216,2.0,5.0,85,-99.99,,,-99.99,,2013-03-02 07:42:00,
2013-03-02 00:52:00,28.0,24.0,-100.00,SW,216,2.0,5.0,85,-99.99,,,-99.99,,2013-03-02 07:52:00,
2013-03-02 01:00:00,27.0,24.0,-100.00,SSW,202,2.0,5.0,87,-99.99,,,-99.99,,2013-03-02 08:00:00,
2013-03-02 01:32:00,27.0,24.0,-100.00,SSW,202,2.0,5.0,87,-99.99,,,-99.99,,2013-03-02 08:32:00,
2013-03-02 01:42:00,27.0,24.0,-100.00,SSW,202,2.0,5.0,87,-99.99,,,-99.99,,2013-03-02 08:42:00,
2013-03-02 01:52:00,27.0,24.0,-100.00,SSW,202,2.0,5.0,87,-99.99,,,-99.99,,2013-03-02 08:52:00,
2013-03-02 02:00:00,27.0,24.0,-100.00,SE,145,2.0,3.0,86,-99.99,,,-99.99,,2013-03-02 09:00:00,
2013-03-02 02:32:00,27.0,24.0,-100.00,SE,145,2.0,3.0,86,-99.99,,,-99.99,,2013-03-02 09:32:00,
2013-03-02 02:42:00,27.0,24.0,-100.00,SE,145,2.0,3.0,86,-99.99,,,-99.99,,2013-03-02 09:42:00,
2013-03-02 02:52:00,27.0,24.0,-100.00,SE,145,2.0,3.0,86,-99.99,,,-99.99,,2013-03-02 09:52:00,
2013-03-02 03:00:00,28.0,25.0,-100.00,ENE,57,1.0,3.0,88,-99.99,,,-99.99,,2013-03-02 10:00:00,
2013-03-02 03:32:00,28.0,25.0,-100.00,ENE,57,1.0,3.0,88,-99.99,,,-99.99,,2013-03-02 10:32:00,
2013-03-02 03:43:00,28.0,25.0,-100.00,ENE,57,1.0,3.0,88,-99.99,,,-99.99,,2013-03-02 10:43:00,
2013-03-02 03:52:00,28.0,25.0,-100.00,ENE,57,1.0,3.0,88,-99.99,,,-99.99,,2013-03-02 10:52:00,
2013-03-02 05:00:00,27.0,23.0,-100.00,South,188,3.0,6.0,86,-99.99,,,-99.99,,2013-03-02 12:00:00,
2013-03-02 05:33:00,27.0,23.0,-100.00,South,188,3.0,6.0,86,-99.99,,,-99.99,,2013-03-02 12:33:00,
2013-03-02 05:43:00,27.0,23.0,-100.00,South,188,3.0,6.0,86,-99.99,,,-99.99,,2013-03-02 12:43:00,
2013-03-02 05:53:00,27.0,23.0,-100.00,South,188,3.0,6.0,86,-99.99,,,-99.99,,2013-03-02 12:53:00,
2013-03-02 06:32:00,28.0,24.0,-100.00,SSW,192,4.0,6.0,85,-99.99,,,-99.99,,2013-03-02 13:32:00,
2013-03-02 07:00:00,30.0,21.0,-100.00,South,190,2.0,5.0,68,-99.99,,,-99.99,,2013-03-02 14:00:00,
2013-03-02 07:32:00,30.0,21.0,-100.00,South,190,2.0,5.0,68,-99.99,,,-99.99,,2013-03-02 14:32:00,
2013-03-02 07:42:00,30.0,21.0,-100.00,South,190,2.0,5.0,68,-99.99,,,-99.99,,2013-03-02 14:42:00,
2013-03-02 07:52:00,30.0,21.0,-100.00,South,190,2.0,5.0,68,-99.99,,,-99.99,,2013-03-02 14:52:00,
2013-03-02 08:00:00,32.0,15.0,-100.00,SSW,208,2.0,4.0,48,-99.99,,,-99.99,,2013-03-02 15:00:00,
2013-03-02 08:32:00,32.0,15.0,-100.00,SSW,208,2.0,4.0,48,-99.99,,,-99.99,,2013-03-02 15:32:00,
2013-03-02 08:42:00,32.0,15.0,-100.00,SSW,208,2.0,4.0,48,-99.99,,,-99.99,,2013-03-02 15:42:00,
2013-03-02 08:52:00,32.0,15.0,-100.00,SSW,208,2.0,4.0,48,-99.99,,,-99.99,,2013-03-02 15:52:00,
2013-03-02 09:00:00,39.0,16.0,-100.00,South,171,1.0,3.0,39,-99.99,,,-99.99,,2013-03-02 16:00:00,
2013-03-02 09:32:00,39.0,16.0,-100.00,South,171,1.0,3.0,39,-99.99,,,-99.99,,2013-03-02 16:32:00,
2013-03-02 09:42:00,39.0,16.0,-100.00,South,171,1.0,3.0,39,-99.99,,,-99.99,,2013-03-02 16:42:00,
2013-03-02 09:52:00,39.0,16.0,-100.00,South,171,1.0,3.0,39,-99.99,,,-99.99,,2013-03-02 16:52:00,
2013-03-02 10:00:00,43.0,17.0,-100.00,NW,325,1.0,5.0,34,-99.99,,,-99.99,,2013-03-02 17:00:00,
2013-03-02 10:32:00,43.0,17.0,-100.00,NW,325,1.0,5.0,34,-99.99,,,-99.99,,2013-03-02 17:32:00,
2013-03-02 10:42:00,43.0,17.0,-100.00,NW,325,1.0,5.0,34,-99.99,,,-99.99,,2013-03-02 17:42:00,
2013-03-02 10:52:00,43.0,17.0,-100.00,NW,325,1.0,5.0,34,-99.99,,,-99.99,,2013-03-02 17:52:00,
2013-03-02 11:00:00,45.0,19.0,-100.00,North,6,1.0,2.0,34,-99.99,,,-99.99,,2013-03-02 18:00:00,
2013-03-02 11:32:00,45.0,19.0,-100.00,North,6,1.0,2.0,34,-99.99,,,-99.99,,2013-03-02 18:32:00,
2013-03-02 11:42:00,45.0,19.0,-100.00,North,6,1.0,2.0,34,-99.99,,,-99.99,,2013-03-02 18:42:00,
2013-03-02 11:52:00,45.0,19.0,-100.00,North,6,1.0,2.0,34,-99.99,,,-99.99,,2013-03-02 18:52:00,
2013-03-02 12:00:00,48.0,25.0,-100.00,NNE,31,1.0,5.0,40,-99.99,,,-99.99,,2013-03-02 19:00:00,
2013-03-02 12:32:00,48.0,25.0,-100.00,NNE,31,1.0,5.0,40,-99.99,,,-99.99,,2013-03-02 19:32:00,
2013-03-02 12:42:00,48.0,25.0,-100.00,NNE,31,1.0,5.0,40,-99.99,,,-99.99,,2013-03-02 19:42:00,
2013-03-02 12:52:00,48.0,25.0,-100.00,NNE,31,1.0,5.0,40,-99.99,,,-99.99,,2013-03-02 19:52:00,
2013-03-02 13:00:00,48.0,28.0,-100.00,NNE,19,1.0,4.0,46,-99.99,,,-99.99,,2013-03-02 20:00:00,
2013-03-02 13:32:00,48.0,28.0,-100.00,NNE,19,1.0,4.0,46,-99.99,,,-99.99,,2013-03-02 20:32:00,
2013-03-02 13:42:00,48.0,28.0,-100.00,NNE,19,1.0,4.0,46,-99.99,,,-99.99,,2013-03-02 20:42:00,
2013-03-02 13:52:00,48.0,28.0,-100.00,NNE,19,1.0,4.0,46,-99.99,,,-99.99,,2013-03-02 20:52:00,
2013-03-02 14:00:00,49.0,29.0,-100.00,NE,55,2.0,6.0,46,-99.99,,,-99.99,,2013-03-02 21:00:00,
2013-03-02 14:32:00,49.0,29.0,-100.00,NE,55,2.0,6.0,46,-99.99,,,-99.99,,2013-03-02 21:32:00,
2013-03-02 14:42:00,49.0,29.0,-100.00,NE,55,2.0,6.0,46,-99.99,,,-99.99,,2013-03-02 21:42:00,
2013-03-02 14:52:00,49.0,29.0,-100.00,NE,55,2.0,6.0,46,-99.99,,,-99.99,,2013-03-02 21:52:00,
2013-03-02 15:00:00,48.0,29.0,-100.00,NW,315,1.0,5.0,47,-99.99,,,-99.99,,2013-03-02 22:00:00,
2013-03-02 15:32:00,48.0,29.0,-100.00,NW,315,1.0,5.0,47,-99.99,,,-99.99,,2013-03-02 22:32:00,
2013-03-02 15:42:00,48.0,29.0,-100.00,NW,315,1.0,5.0,47,-99.99,,,-99.99,,2013-03-02 22:42:00,
2013-03-02 15:52:00,48.0,29.0,-100.00,NW,315,1.0,5.0,47,-99.99,,,-99.99,,2013-03-02 22:52:00,
2013-03-02 16:00:00,47.0,28.0,-100.00,NW,312,2.0,5.0,48,-99.99,,,-99.99,,2013-03-02 23:00:00,
2013-03-02 16:32:00,47.0,28.0,-100.00,NW,312,2.0,5.0,48,-99.99,,,-99.99,,2013-03-02 23:32:00,
2013-03-02 16:42:00,47.0,28.0,-100.00,NW,312,2.0,5.0,48,-99.99,,,-99.99,,2013-03-02 23:42:00,
2013-03-02 16:52:00,47.0,28.0,-100.00,NW,312,2.0,5.0,48,-99.99,,,-99.99,,2013-03-02 23:52:00,
2013-03-02 17:00:00,45.0,28.0,-100.00,NW,311,1.0,5.0,52,-99.99,,,-99.99,,2013-03-03 00:00:00,
2013-03-02 17:32:00,45.0,28.0,-100.00,NW,311,1.0,5.0,52,-99.99,,,-99.99,,2013-03-03 00:32:00,
2013-03-02 17:42:00,45.0,28.0,-100.00,NW,311,1.0,5.0,52,-99.99,,,-99.99,,2013-03-03 00:42:00,
2013-03-02 17:52:00,45.0,28.0,-100.00,NW,311,1.0,5.0,52,-99.99,,,-99.99,,2013-03-03 00:52:00,
2013-03-02 18:00:00,41.0,27.0,-100.00,NW,318,3.0,6.0,57,-99.99,,,-99.99,,2013-03-03 01:00:00,
2013-03-02 18:32:00,41.0,27.0,-100.00,NW,318,3.0,6.0,57,-99.99,,,-99.99,,2013-03-03 01:32:00,
2013-03-02 18:42:00,41.0,27.0,-100.00,NW,318,3.0,6.0,57,-99.99,,,-99.99,,2013-03-03 01:42:00,
2013-03-02 18:52:00,41.0,27.0,-100.00,NW,318,3.0,6.0,57,-99.99,,,-99.99,,2013-03-03 01:52:00,
2013-03-02 19:32:00,40.0,27.0,-100.00,WSW,251,4.0,10.0,57,-99.99,,,-99.99,,2013-03-03 02:32:00,
2013-03-02 20:00:00,40.0,17.0,-100.00,WSW,237,4.0,12.0,39,-99.99,,,-99.99,,2013-03-03 03:00:00,
2013-03-02 20:32:00,40.0,17.0,-100.00,WSW,237,4.0,12.0,39,-99.99,,,-99.99,,2013-03-03 03:32:00,
2013-03-02 20:42:00,40.0,17.0,-100.00,WSW,237,4.0,12.0,39,-99.99,,,-99.99,,2013-03-03 03:42:00,
2013-03-02 20:52:00,40.0,17.0,-100.00,WSW,237,4.0,12.0,39,-99.99,,,-99.99,,2013-03-03 03:52:00,
2013-03-02 21:00:00,39.0,14.0,-100.00,SW,230,5.0,11.0,35,-99.99,,,-99.99,,2013-03-03 04:00:00,
2013-03-02 21:32:00,39.0,14.0,-100.00,SW,230,5.0,11.0,35,-99.99,,,-99.99,,2013-03-03 04:32:00,
2013-03-02 21:42:00,39.0,14.0,-100.00,SW,230,5.0,11.0,35,-99.99,,,-99.99,,2013-03-03 04:42:00,
2013-03-02 21:52:00,39.0,14.0,-100.00,SW,230,5.0,11.0,35,-99.99,,,-99.99,,2013-03-03 04:52:00,
2013-03-02 22:00:00,40.0,14.0,-100.00,WSW,245,5.0,12.0,34,-99.99,,,-99.99,,2013-03-03 05:00:00,
2013-03-02 22:32:00,40.0,14.0,-100.00,WSW,245,5.0,12.0,34,-99.99,,,-99.99,,2013-03-03 05:32:00,
2013-03-02 22:42:00,40.0,14.0,-100.00,WSW,245,5.0,12.0,34,-99.99,,,-99.99,,2013-03-03 05:42:00,
2013-03-02 22:52:00,40.0,14.0,-100.00,WSW,245,5.0,12.0,34,-99.99,,,-99.99,,2013-03-03 05:52:00,
2013-03-02 23:00:00,40.0,18.0,-100.00,SW,234,6.0,12.0,41,-99.99,,,-99.99,,2013-03-03 06:00:00,
2013-03-02 23:32:00,40.0,18.0,-100.00,SW,234,6.0,12.0,41,-99.99,,,-99.99,,2013-03-03 06:32:00,
2013-03-02 23:42:00,40.0,18.0,-100.00,SW,234,6.0,12.0,41,-99.99,,,-99.99,,2013-03-03 06:42:00,
2013-03-02 23:52:00,40.0,18.0,-100.00,SW,234,6.0,12.0,41,-99.99,,,-99.99,,2013-03-03 06:52:00,